createdAt,value
2018-08-28T00:01:31.605Z,14.71
2018-08-28T00:03:59.909Z,14.75
2018-08-28T00:06:28.177Z,14.82
2018-08-28T00:08:56.669Z,14.73
2018-08-28T00:11:25.140Z,14.64
2018-08-28T00:13:53.415Z,14.70
2018-08-28T00:16:21.691Z,14.64
2018-08-28T00:18:49.941Z,14.75
2018-08-28T00:21:18.217Z,14.67
2018-08-28T00:23:46.653Z,14.59
2018-08-28T00:26:14.898Z,14.63
2018-08-28T00:28:43.154Z,14.52
2018-08-28T00:31:11.417Z,14.43
2018-08-28T00:33:39.673Z,14.43
2018-08-28T00:36:07.958Z,14.37
2018-08-28T00:38:37.310Z,14.31
2018-08-28T00:41:05.590Z,14.36
2018-08-28T00:43:33.839Z,14.42
2018-08-28T00:46:02.137Z,14.45
2018-08-28T00:48:30.407Z,14.46
2018-08-28T00:50:58.677Z,14.43
2018-08-28T00:53:26.971Z,14.40
2018-08-28T00:55:55.243Z,14.43
2018-08-28T00:58:24.569Z,14.53
2018-08-28T01:00:52.860Z,14.56
2018-08-28T01:03:21.097Z,14.65
2018-08-28T01:05:49.411Z,14.72
2018-08-28T01:08:17.681Z,14.73
2018-08-28T01:10:46.989Z,14.84
2018-08-28T01:13:15.239Z,14.85
2018-08-28T01:15:43.513Z,14.85
2018-08-28T01:18:11.759Z,14.96
2018-08-28T01:20:40.014Z,15.02
2018-08-28T01:23:08.302Z,15.07
2018-08-28T01:25:36.557Z,15.14
2018-08-28T01:28:04.964Z,14.91
2018-08-28T01:30:33.969Z,14.98
2018-08-28T01:33:03.928Z,15.04
2018-08-28T01:35:32.369Z,14.96
2018-08-28T01:38:00.756Z,14.99
2018-08-28T01:40:29.545Z,14.87
2018-08-28T01:42:57.837Z,14.83
2018-08-28T01:45:26.115Z,14.62
2018-08-28T01:47:54.390Z,14.63
2018-08-28T01:50:22.714Z,14.51
2018-08-28T01:52:50.997Z,14.55
2018-08-28T01:55:19.250Z,14.56
2018-08-28T01:57:47.513Z,14.52
2018-08-28T02:00:15.762Z,14.48
2018-08-28T02:02:44.053Z,14.52
2018-08-28T02:05:12.327Z,14.42
2018-08-28T02:07:40.640Z,14.43
2018-08-28T02:10:08.960Z,14.48
2018-08-28T02:12:38.280Z,14.44
2018-08-28T02:15:07.569Z,14.43
2018-08-28T02:17:35.917Z,14.37
2018-08-28T02:20:04.833Z,14.37
2018-08-28T02:22:33.125Z,14.27
2018-08-28T02:25:01.479Z,14.25
2018-08-28T02:27:29.736Z,14.20
2018-08-28T02:29:58.061Z,14.21
2018-08-28T02:32:26.329Z,14.16
2018-08-28T02:34:54.613Z,14.19
2018-08-28T02:37:22.881Z,14.20
2018-08-28T02:39:51.206Z,14.16
2018-08-28T02:42:19.517Z,14.15
2018-08-28T02:44:47.803Z,14.09
2018-08-28T02:47:16.069Z,14.03
2018-08-28T02:49:45.381Z,14.05
2018-08-28T02:52:13.680Z,13.95
2018-08-28T02:54:41.987Z,14.04
2018-08-28T02:57:10.299Z,14.03
2018-08-28T02:59:38.558Z,14.08
2018-08-28T03:02:06.933Z,13.96
2018-08-28T03:04:35.217Z,13.93
2018-08-28T03:07:03.484Z,13.92
2018-08-28T03:09:31.801Z,13.87
2018-08-28T03:12:00.109Z,13.89
2018-08-28T03:14:28.367Z,13.92
2018-08-28T03:16:56.629Z,13.88
2018-08-28T03:19:24.929Z,13.83
2018-08-28T03:21:53.290Z,13.86
2018-08-28T03:24:21.552Z,13.87
2018-08-28T03:26:49.844Z,13.82
2018-08-28T03:29:18.109Z,13.83
2018-08-28T03:31:46.420Z,13.83
2018-08-28T03:34:14.818Z,13.78
2018-08-28T03:36:43.113Z,13.80
2018-08-28T03:39:11.486Z,13.84
2018-08-28T03:41:39.773Z,13.77
2018-08-28T03:44:09.069Z,13.73
2018-08-28T03:46:37.468Z,13.78
2018-08-28T03:49:05.757Z,13.68
2018-08-28T03:51:34.061Z,13.69
2018-08-28T03:54:02.329Z,13.68
2018-08-28T03:56:30.641Z,13.68
2018-08-28T03:58:58.912Z,13.66
2018-08-28T04:01:27.215Z,13.71
2018-08-28T04:03:55.530Z,13.73
2018-08-28T04:06:23.825Z,13.72
2018-08-28T04:08:52.144Z,13.74
2018-08-28T04:11:21.444Z,13.70
2018-08-28T04:13:49.740Z,13.65
2018-08-28T04:16:18.021Z,13.62
2018-08-28T04:18:46.305Z,13.63
2018-08-28T04:21:15.700Z,13.67
2018-08-28T04:23:44.018Z,13.67
2018-08-28T04:26:12.301Z,13.69
2018-08-28T04:28:40.635Z,13.62
2018-08-28T04:31:08.925Z,13.63
2018-08-28T04:33:37.222Z,13.69
2018-08-28T04:36:05.525Z,13.62
2018-08-28T04:38:34.877Z,13.67
2018-08-28T04:41:03.153Z,13.71
2018-08-28T04:43:31.565Z,13.68
2018-08-28T04:45:59.829Z,13.68
2018-08-28T04:48:28.208Z,13.66
2018-08-28T04:50:56.458Z,13.69
2018-08-28T04:53:24.786Z,13.71
2018-08-28T04:55:53.225Z,13.73
2018-08-28T04:58:22.596Z,13.76
2018-08-28T05:00:50.960Z,13.79
2018-08-28T05:03:20.262Z,13.80
2018-08-28T05:05:48.713Z,13.79
2018-08-28T05:08:17.026Z,13.89
2018-08-28T05:10:45.405Z,13.91
2018-08-28T05:13:14.772Z,13.94
2018-08-28T05:15:43.170Z,13.97
2018-08-28T05:18:11.431Z,14.03
2018-08-28T05:20:39.849Z,14.13
2018-08-28T05:23:10.247Z,14.14
2018-08-28T05:25:38.542Z,14.17
2018-08-28T05:28:07.021Z,14.18
2018-08-28T05:30:35.388Z,14.29
2018-08-28T05:33:03.649Z,14.33
2018-08-28T05:35:31.949Z,14.41
2018-08-28T05:38:00.263Z,14.42
2018-08-28T05:40:28.500Z,14.50
2018-08-28T05:42:56.772Z,14.60
2018-08-28T05:45:25.170Z,14.76
2018-08-28T05:47:53.445Z,14.78
2018-08-28T05:50:21.742Z,14.84
2018-08-28T05:52:49.995Z,14.84
2018-08-28T05:55:18.291Z,14.95
2018-08-28T05:57:48.601Z,15.05
2018-08-28T06:00:17.941Z,15.05
2018-08-28T06:02:46.302Z,15.15
2018-08-28T06:05:14.658Z,15.17
2018-08-28T06:07:42.965Z,15.16
2018-08-28T06:10:11.245Z,15.11
2018-08-28T06:12:40.608Z,15.25
2018-08-28T06:15:09.049Z,15.48
2018-08-28T06:17:37.340Z,15.62
2018-08-28T06:20:06.105Z,15.58
2018-08-28T06:22:34.438Z,15.73
2018-08-28T06:25:03.857Z,15.66
2018-08-28T06:27:32.149Z,15.40
2018-08-28T06:30:00.399Z,15.59
2018-08-28T06:32:28.753Z,15.62
2018-08-28T06:34:57.026Z,15.86
2018-08-28T06:37:25.467Z,16.08
2018-08-28T06:39:55.641Z,15.98
2018-08-28T06:42:24.922Z,16.16
2018-08-28T06:44:53.185Z,16.07
2018-08-28T06:47:22.497Z,16.41
2018-08-28T06:49:51.820Z,16.45
2018-08-28T06:52:20.120Z,16.72
2018-08-28T06:54:48.390Z,16.55
2018-08-28T06:57:17.758Z,16.85
2018-08-28T06:59:46.326Z,17.00
2018-08-28T07:02:14.592Z,17.04
2018-08-28T07:04:42.893Z,17.09
2018-08-28T07:07:11.366Z,17.11
2018-08-28T07:09:40.665Z,17.36
2018-08-28T07:12:08.970Z,17.62
2018-08-28T07:14:37.242Z,17.54
2018-08-28T07:17:06.557Z,17.72
2018-08-28T07:19:34.853Z,17.98
2018-08-28T07:22:03.444Z,17.67
2018-08-28T07:24:31.713Z,17.90
2018-08-28T07:27:00.057Z,18.18
2018-08-28T07:29:28.321Z,18.24
2018-08-28T07:31:56.680Z,18.20
2018-08-28T07:34:24.889Z,18.58
2018-08-28T07:36:54.236Z,18.47
2018-08-28T07:39:22.565Z,18.77
2018-08-28T07:41:51.893Z,18.25
2018-08-28T07:44:20.399Z,18.43
2018-08-28T07:46:48.675Z,18.30
2018-08-28T07:49:17.047Z,17.99
2018-08-28T07:51:45.353Z,18.40
2018-08-28T07:54:13.619Z,18.48
2018-08-28T07:56:41.915Z,18.43
2018-08-28T07:59:10.187Z,18.73
2018-08-28T08:01:39.205Z,18.97
2018-08-28T08:04:07.509Z,19.52
2018-08-28T08:06:35.845Z,19.69
2018-08-28T08:09:07.688Z,19.66
2018-08-28T08:11:35.989Z,19.49
2018-08-28T08:14:04.349Z,19.56
2018-08-28T08:16:32.617Z,19.87
2018-08-28T08:19:00.913Z,19.82
2018-08-28T08:21:29.235Z,19.86
2018-08-28T08:23:57.554Z,20.18
2018-08-28T08:26:25.864Z,20.21
2018-08-28T08:28:55.245Z,20.42
2018-08-28T08:31:23.572Z,20.74
2018-08-28T08:33:51.909Z,20.29
2018-08-28T08:36:20.230Z,20.66
2018-08-28T08:38:48.554Z,20.44
2018-08-28T08:41:16.905Z,20.74
2018-08-28T08:43:45.202Z,20.95
2018-08-28T08:46:13.562Z,20.96
2018-08-28T08:48:41.822Z,21.09
2018-08-28T08:51:10.110Z,20.57
2018-08-28T08:53:38.481Z,20.43
2018-08-28T08:56:06.801Z,20.01
2018-08-28T08:58:36.084Z,19.78
2018-08-28T09:01:04.382Z,19.53
2018-08-28T09:03:32.695Z,19.24
2018-08-28T09:06:01.222Z,19.21
2018-08-28T09:08:29.475Z,18.99
2018-08-28T09:10:57.793Z,18.84
2018-08-28T09:13:26.096Z,18.78
2018-08-28T09:15:54.371Z,18.49
2018-08-28T09:18:23.727Z,18.32
2018-08-28T09:20:52.017Z,18.04
2018-08-28T09:23:20.313Z,17.77
2018-08-28T09:25:48.621Z,17.63
2018-08-28T09:28:16.985Z,17.56
2018-08-28T09:30:45.278Z,17.55
2018-08-28T09:33:13.577Z,17.97
2018-08-28T09:35:41.901Z,18.13
2018-08-28T09:38:11.330Z,18.63
2018-08-28T09:40:39.669Z,18.92
2018-08-28T09:43:07.966Z,19.27
2018-08-28T09:45:36.237Z,19.57
2018-08-28T09:48:04.624Z,19.77
2018-08-28T09:50:33.074Z,19.80
2018-08-28T09:53:01.357Z,19.98
2018-08-28T09:55:29.652Z,19.96
2018-08-28T09:57:59.039Z,20.07
2018-08-28T10:00:30.121Z,20.05
2018-08-28T10:02:59.239Z,20.07
2018-08-28T10:05:27.533Z,20.48
2018-08-28T10:07:55.924Z,20.40
2018-08-28T10:10:25.234Z,19.99
2018-08-28T10:12:53.545Z,19.54
2018-08-28T10:15:21.851Z,19.78
2018-08-28T10:17:50.138Z,19.21
2018-08-28T10:20:18.402Z,19.43
2018-08-28T10:22:46.815Z,19.05
2018-08-28T10:25:15.081Z,19.03
2018-08-28T10:27:43.388Z,18.95
2018-08-28T10:30:11.702Z,18.88
2018-08-28T10:32:39.981Z,18.58
2018-08-28T10:35:08.717Z,18.76
2018-08-28T10:37:37.032Z,19.16
2018-08-28T10:40:06.399Z,19.47
2018-08-28T10:42:34.681Z,19.90
2018-08-28T10:45:03.054Z,20.26
2018-08-28T10:47:31.319Z,19.98
2018-08-28T10:49:59.786Z,20.27
2018-08-28T10:52:28.155Z,19.95
2018-08-28T10:54:56.672Z,20.51
2018-08-28T10:57:25.006Z,20.65
2018-08-28T10:59:54.041Z,21.16
2018-08-28T11:02:22.549Z,21.08
2018-08-28T11:04:50.845Z,21.14
2018-08-28T11:07:19.129Z,20.88
2018-08-28T11:09:47.417Z,20.45
2018-08-28T11:12:16.721Z,20.59
2018-08-28T11:14:45.006Z,20.67
2018-08-28T11:17:13.269Z,20.63
2018-08-28T11:19:41.596Z,21.00
2018-08-28T11:22:10.052Z,20.72
2018-08-28T11:24:38.334Z,21.32
2018-08-28T11:27:06.594Z,21.93
2018-08-28T11:29:35.278Z,21.29
2018-08-28T11:32:04.710Z,21.67
2018-08-28T11:34:33.969Z,21.51
2018-08-28T11:37:02.376Z,21.02
2018-08-28T11:39:30.638Z,21.26
2018-08-28T11:42:00.984Z,21.43
2018-08-28T11:44:33.238Z,21.06
2018-08-28T11:47:01.625Z,20.68
2018-08-28T11:49:29.963Z,20.98
2018-08-28T11:51:58.276Z,20.79
2018-08-28T11:54:26.567Z,21.19
2018-08-28T11:56:56.117Z,21.18
2018-08-28T11:59:24.638Z,21.27
2018-08-28T12:01:52.978Z,21.33
2018-08-28T12:04:21.312Z,22.00
2018-08-28T12:06:49.707Z,22.43
2018-08-28T12:09:17.891Z,22.28
2018-08-28T12:11:46.293Z,22.17
2018-08-28T12:14:14.569Z,22.16
2018-08-28T12:16:42.887Z,22.13
2018-08-28T12:19:11.186Z,22.05
2018-08-28T12:21:40.157Z,22.11
2018-08-28T12:24:09.485Z,22.09
2018-08-28T12:26:39.321Z,22.31
2018-08-28T12:29:07.614Z,22.17
2018-08-28T12:31:37.014Z,22.14
2018-08-28T12:34:06.433Z,21.97
2018-08-28T12:36:34.805Z,22.42
2018-08-28T12:39:05.561Z,21.88
2018-08-28T12:41:33.830Z,22.00
2018-08-28T12:44:02.262Z,22.07
2018-08-28T12:46:30.464Z,22.27
2018-08-28T12:48:58.797Z,21.83
2018-08-28T12:51:28.313Z,21.45
2018-08-28T12:53:56.493Z,21.51
2018-08-28T12:56:24.773Z,21.28
2018-08-28T12:58:54.218Z,21.03
2018-08-28T13:01:22.457Z,21.01
2018-08-28T13:03:50.772Z,20.59
2018-08-28T13:06:20.113Z,20.43
2018-08-28T13:08:48.426Z,20.14
2018-08-28T13:11:16.709Z,20.12
2018-08-28T13:13:46.200Z,20.31
2018-08-28T13:16:14.473Z,20.54
2018-08-28T13:18:42.838Z,20.32
2018-08-28T13:21:11.086Z,20.33
2018-08-28T13:23:40.410Z,20.32
2018-08-28T13:26:08.920Z,20.17
2018-08-28T13:28:37.054Z,20.48
2018-08-28T13:31:05.621Z,20.86
2018-08-28T13:33:33.906Z,21.29
2018-08-28T13:36:02.238Z,20.99
2018-08-28T13:38:30.505Z,20.67
2018-08-28T13:40:58.828Z,21.20
2018-08-28T13:43:27.146Z,20.85
2018-08-28T13:45:55.477Z,21.18
2018-08-28T13:48:23.801Z,21.30
2018-08-28T13:50:52.091Z,20.79
2018-08-28T13:53:20.365Z,21.27
2018-08-28T13:55:48.810Z,20.98
2018-08-28T13:58:17.130Z,21.22
2018-08-28T14:00:46.534Z,21.24
2018-08-28T14:03:14.846Z,21.67
2018-08-28T14:05:44.169Z,22.46
2018-08-28T14:08:13.615Z,22.58
2018-08-28T14:10:42.993Z,22.49
2018-08-28T14:13:11.303Z,22.37
2018-08-28T14:15:39.627Z,22.79
2018-08-28T14:18:07.954Z,22.54
2018-08-28T14:20:36.301Z,22.45
2018-08-28T14:23:04.765Z,22.11
2018-08-28T14:25:33.162Z,21.74
2018-08-28T14:28:01.466Z,21.57
2018-08-28T14:30:31.836Z,21.44
2018-08-28T14:33:00.257Z,21.81
2018-08-28T14:35:29.636Z,21.51
2018-08-28T14:37:57.955Z,21.41
2018-08-28T14:40:26.356Z,21.44
2018-08-28T14:42:54.577Z,21.59
2018-08-28T14:45:22.881Z,21.91
2018-08-28T14:47:51.479Z,21.57
2018-08-28T14:50:19.897Z,21.28
2018-08-28T14:52:48.167Z,21.51
2018-08-28T14:55:17.593Z,21.49
2018-08-28T14:57:45.893Z,21.75
2018-08-28T15:00:14.178Z,21.21
2018-08-28T15:02:42.502Z,20.90
2018-08-28T15:05:10.758Z,20.93
2018-08-28T15:07:40.201Z,20.51
2018-08-28T15:10:08.509Z,20.75
2018-08-28T15:12:36.855Z,20.56
2018-08-28T15:15:05.198Z,20.80
2018-08-28T15:17:33.920Z,21.12
2018-08-28T15:20:02.210Z,20.57
2018-08-28T15:22:30.685Z,20.56
2018-08-28T15:24:58.991Z,20.44
2018-08-28T15:27:27.436Z,20.58
2018-08-28T15:29:55.729Z,20.36
2018-08-28T15:32:24.005Z,20.05
2018-08-28T15:34:52.333Z,19.95
2018-08-28T15:37:20.668Z,20.11
2018-08-28T15:39:49.071Z,20.02
2018-08-28T15:42:18.357Z,19.87
2018-08-28T15:44:47.702Z,19.78
2018-08-28T15:47:15.977Z,20.15
2018-08-28T15:49:44.286Z,20.16
2018-08-28T15:55:02.986Z,20.26
2018-08-28T15:57:31.220Z,20.12
2018-08-28T15:59:59.498Z,20.31
2018-08-28T16:02:27.784Z,20.27
2018-08-28T16:04:56.078Z,20.39
2018-08-28T16:07:24.329Z,20.42
2018-08-28T16:09:52.627Z,20.45
2018-08-28T16:12:20.892Z,20.33
2018-08-28T16:14:49.189Z,20.32
2018-08-28T16:17:17.473Z,20.16
2018-08-28T16:19:45.766Z,20.25
2018-08-28T16:22:16.148Z,20.34
2018-08-28T16:24:44.437Z,20.29
2018-08-28T16:27:12.756Z,20.26
2018-08-28T16:29:41.041Z,20.03
2018-08-28T16:32:10.311Z,20.14
2018-08-28T16:34:39.786Z,19.90
2018-08-28T16:37:08.139Z,20.00
2018-08-28T16:39:36.510Z,19.93
2018-08-28T16:42:04.797Z,20.00
2018-08-28T16:44:33.109Z,20.15
2018-08-28T16:47:01.390Z,20.01
2018-08-28T16:49:29.661Z,19.95
2018-08-28T16:51:58.946Z,20.01
2018-08-28T16:54:27.215Z,19.88
2018-08-28T16:56:55.514Z,19.81
2018-08-28T16:59:24.861Z,19.81
2018-08-28T17:01:54.656Z,19.64
2018-08-28T17:04:24.890Z,19.67
2018-08-28T17:06:53.182Z,19.73
2018-08-28T17:09:21.446Z,19.67
2018-08-28T17:11:49.714Z,19.85
2018-08-28T17:14:18.039Z,19.84
2018-08-28T17:16:46.339Z,19.80
2018-08-28T17:19:14.662Z,19.83
2018-08-28T17:21:42.930Z,19.52
2018-08-28T17:24:12.453Z,19.45
2018-08-28T17:26:40.774Z,19.34
2018-08-28T17:29:09.117Z,19.45
2018-08-28T17:31:37.397Z,19.32
2018-08-28T17:34:05.808Z,19.26
2018-08-28T17:36:34.133Z,19.30
2018-08-28T17:39:03.953Z,19.22
2018-08-28T17:41:32.282Z,19.25
2018-08-28T17:44:01.597Z,19.33
2018-08-28T17:46:32.001Z,19.11
2018-08-28T17:49:00.351Z,19.21
2018-08-28T17:51:28.586Z,19.29
2018-08-28T17:53:57.860Z,19.14
2018-08-28T17:56:27.123Z,19.18
2018-08-28T17:58:55.469Z,19.22
2018-08-28T18:01:23.794Z,19.20
2018-08-28T18:03:52.150Z,19.12
2018-08-28T18:06:20.348Z,19.18
2018-08-28T18:08:48.622Z,19.09
2018-08-28T18:11:16.945Z,18.99
2018-08-28T18:13:45.201Z,19.05
2018-08-28T18:16:15.607Z,19.06
2018-08-28T18:18:43.913Z,19.05
2018-08-28T18:21:12.185Z,19.02
2018-08-28T18:23:40.683Z,19.11
2018-08-28T18:26:09.057Z,19.06
2018-08-28T18:28:37.400Z,18.90
2018-08-28T18:31:05.704Z,18.99
2018-08-28T18:33:34.025Z,18.92
2018-08-28T18:36:02.449Z,18.82
2018-08-28T18:38:31.770Z,18.89
2018-08-28T18:41:00.059Z,18.90
2018-08-28T18:43:32.906Z,18.93
2018-08-28T18:46:01.198Z,18.84
2018-08-28T18:48:29.513Z,18.91
2018-08-28T18:50:58.917Z,18.73
2018-08-28T18:53:27.269Z,18.83
2018-08-28T18:55:55.542Z,18.90
2018-08-28T18:58:24.021Z,18.80
2018-08-28T19:00:52.320Z,18.81
2018-08-28T19:03:20.709Z,18.89
2018-08-28T19:05:48.970Z,18.91
2018-08-28T19:08:18.254Z,19.00
2018-08-28T19:10:47.592Z,18.95
2018-08-28T19:13:15.906Z,18.89
2018-08-28T19:15:46.348Z,18.94
2018-08-28T19:18:14.684Z,18.99
2018-08-28T19:20:44.121Z,18.93
2018-08-28T19:23:12.477Z,18.88
2018-08-28T19:25:40.753Z,18.91
2018-08-28T19:28:09.086Z,18.93
2018-08-28T19:30:37.308Z,18.87
2018-08-28T19:33:05.698Z,18.83
2018-08-28T19:35:33.949Z,18.89
2018-08-28T19:38:02.217Z,18.85
2018-08-28T19:40:30.506Z,18.86
2018-08-28T19:42:58.899Z,18.81
2018-08-28T19:45:27.158Z,18.80
2018-08-28T19:47:55.425Z,18.77
2018-08-28T19:50:23.673Z,18.78
2018-08-28T19:52:51.957Z,18.61
2018-08-28T19:55:21.389Z,18.65
2018-08-28T19:57:49.688Z,18.75
2018-08-28T20:00:20.845Z,18.64
2018-08-28T20:02:49.133Z,18.68
2018-08-28T20:05:17.394Z,18.66
2018-08-28T20:07:45.806Z,18.67
2018-08-28T20:10:14.254Z,18.61
2018-08-28T20:12:42.521Z,18.60
2018-08-28T20:15:10.821Z,18.59
2018-08-28T20:17:39.154Z,18.61
2018-08-28T20:20:07.422Z,18.60
2018-08-28T20:22:35.725Z,18.59
2018-08-28T20:25:04.005Z,18.53
2018-08-28T20:27:32.281Z,18.59
2018-08-28T20:30:00.605Z,18.55
2018-08-28T20:32:28.880Z,18.57
2018-08-28T20:34:57.153Z,18.56
2018-08-28T20:37:25.753Z,18.56
2018-08-28T20:39:53.946Z,18.60
2018-08-28T20:42:22.210Z,18.59
2018-08-28T20:44:50.723Z,18.49
2018-08-28T20:47:19.005Z,18.48
2018-08-28T20:49:47.281Z,18.40
2018-08-28T20:52:15.745Z,18.29
2018-08-28T20:54:44.010Z,18.31
2018-08-28T20:57:12.263Z,18.30
2018-08-28T20:59:40.547Z,18.25
2018-08-28T21:02:08.821Z,18.14
2018-08-28T21:04:37.069Z,17.95
2018-08-28T21:07:05.730Z,17.89
2018-08-28T21:09:33.990Z,17.72
2018-08-28T21:12:02.264Z,17.71
2018-08-28T21:14:31.552Z,17.67
2018-08-28T21:16:59.835Z,17.55
2018-08-28T21:19:28.079Z,17.45
2018-08-28T21:21:56.352Z,17.36
2018-08-28T21:24:24.601Z,17.22
2018-08-28T21:26:52.883Z,17.12
2018-08-28T21:29:21.210Z,17.01
2018-08-28T21:31:49.841Z,16.74
2018-08-28T21:34:18.097Z,16.79
2018-08-28T21:36:46.381Z,16.79
2018-08-28T21:39:14.635Z,16.71
2018-08-28T21:41:42.885Z,16.70
2018-08-28T21:44:11.454Z,16.64
2018-08-28T21:46:39.700Z,16.55
2018-08-28T21:49:07.977Z,16.54
2018-08-28T21:51:36.225Z,16.50
2018-08-28T21:54:04.561Z,16.42
2018-08-28T21:56:32.849Z,16.39
2018-08-28T21:59:02.205Z,16.33
2018-08-28T22:01:30.538Z,16.24
2018-08-28T22:03:59.881Z,16.18
2018-08-28T22:06:33.430Z,16.19
2018-08-28T22:09:01.711Z,16.21
2018-08-28T22:11:29.986Z,16.09
2018-08-28T22:13:58.244Z,16.12
2018-08-28T22:16:26.538Z,16.03
2018-08-28T22:18:54.805Z,16.08
2018-08-28T22:21:23.066Z,16.19
2018-08-28T22:23:51.565Z,16.18
2018-08-28T22:26:19.830Z,16.15
2018-08-28T22:28:48.101Z,16.09
2018-08-28T22:31:16.385Z,16.17
2018-08-28T22:33:46.742Z,16.17
2018-08-28T22:36:15.003Z,16.14
2018-08-28T22:38:43.410Z,16.10
2018-08-28T22:41:11.720Z,16.07
2018-08-28T22:43:39.995Z,16.01
2018-08-28T22:46:09.292Z,15.85
2018-08-28T22:48:37.534Z,15.82
2018-08-28T22:51:05.849Z,15.82
2018-08-28T22:53:34.563Z,15.78
2018-08-28T22:56:02.822Z,15.70
2018-08-28T22:58:31.093Z,15.61
2018-08-28T23:01:01.278Z,15.54
2018-08-28T23:03:29.549Z,15.53
2018-08-28T23:05:57.796Z,15.45
2018-08-28T23:08:26.172Z,15.39
2018-08-28T23:10:54.409Z,15.45
2018-08-28T23:13:22.689Z,15.45
2018-08-28T23:15:52.094Z,15.32
2018-08-28T23:18:21.466Z,15.23
2018-08-28T23:20:49.713Z,15.12
2018-08-28T23:23:17.997Z,15.09
2018-08-28T23:25:46.247Z,15.16
2018-08-28T23:28:14.485Z,15.23
2018-08-28T23:30:42.767Z,15.25
2018-08-28T23:33:11.009Z,15.26
2018-08-28T23:35:39.280Z,15.13
2018-08-28T23:38:07.769Z,15.14
2018-08-28T23:40:36.005Z,15.13
2018-08-28T23:43:04.286Z,15.08
2018-08-28T23:45:32.590Z,15.06
2018-08-28T23:48:00.834Z,15.08
2018-08-28T23:50:29.101Z,15.05
2018-08-28T23:52:57.387Z,14.97
2018-08-28T23:55:25.677Z,14.97
2018-08-28T23:57:53.921Z,14.99
